createdAt,value
2018-07-22T00:00:02.660Z,57.64
2018-07-22T00:02:29.954Z,57.61
2018-07-22T00:04:56.920Z,58.26
2018-07-22T00:07:23.870Z,57.81
2018-07-22T00:09:51.430Z,58.39
2018-07-22T00:12:18.429Z,58.02
2018-07-22T00:14:45.461Z,58.05
2018-07-22T00:17:12.760Z,58.18
2018-07-22T00:19:39.663Z,58.74
2018-07-22T00:22:06.633Z,58.82
2018-07-22T00:24:33.921Z,58.87
2018-07-22T00:27:00.872Z,59.00
2018-07-22T00:29:27.968Z,58.44
2018-07-22T00:31:55.161Z,59.01
2018-07-22T00:34:22.124Z,59.13
2018-07-22T00:36:49.045Z,59.26
2018-07-22T00:39:16.606Z,58.77
2018-07-22T00:41:43.567Z,59.05
2018-07-22T00:44:10.534Z,59.47
2018-07-22T00:46:38.008Z,59.04
2018-07-22T00:49:05.013Z,59.36
2018-07-22T00:51:32.054Z,59.62
2018-07-22T00:53:59.266Z,59.17
2018-07-22T00:56:26.218Z,59.56
2018-07-22T00:58:53.228Z,59.90
2018-07-22T01:01:20.655Z,59.67
2018-07-22T01:03:48.069Z,59.62
2018-07-22T01:06:15.090Z,60.17
2018-07-22T01:08:43.152Z,59.79
2018-07-22T01:11:10.392Z,60.40
2018-07-22T01:13:37.355Z,59.85
2018-07-22T01:16:04.705Z,60.06
2018-07-22T01:18:31.665Z,59.94
2018-07-22T01:20:58.616Z,60.67
2018-07-22T01:23:26.437Z,60.04
2018-07-22T01:25:53.402Z,60.25
2018-07-22T01:28:20.367Z,60.16
2018-07-22T01:30:47.588Z,60.77
2018-07-22T01:33:14.579Z,60.83
2018-07-22T01:35:41.532Z,60.40
2018-07-22T01:38:08.825Z,60.95
2018-07-22T01:40:35.830Z,60.88
2018-07-22T01:43:02.780Z,60.91
2018-07-22T01:45:30.159Z,61.03
2018-07-22T01:47:57.277Z,60.90
2018-07-22T01:50:24.200Z,61.08
2018-07-22T01:52:51.467Z,60.78
2018-07-22T01:55:18.536Z,60.66
2018-07-22T01:57:45.481Z,60.90
2018-07-22T02:00:12.678Z,61.11
2018-07-22T02:02:39.809Z,60.73
2018-07-22T02:05:06.758Z,60.80
2018-07-22T02:07:33.842Z,61.32
2018-07-22T02:10:00.973Z,60.92
2018-07-22T02:12:28.771Z,61.53
2018-07-22T02:14:56.007Z,60.99
2018-07-22T02:17:23.198Z,61.30
2018-07-22T02:19:50.118Z,61.18
2018-07-22T02:22:17.332Z,61.19
2018-07-22T02:24:44.539Z,61.09
2018-07-22T02:27:11.451Z,61.44
2018-07-22T02:29:38.631Z,61.23
2018-07-22T02:32:05.841Z,61.15
2018-07-22T02:34:32.798Z,61.40
2018-07-22T02:36:59.969Z,61.86
2018-07-22T02:39:27.212Z,61.97
2018-07-22T02:41:54.197Z,61.96
2018-07-22T02:44:21.366Z,61.44
2018-07-22T02:46:48.409Z,61.67
2018-07-22T02:49:15.348Z,62.17
2018-07-22T02:51:43.144Z,62.16
2018-07-22T02:54:10.331Z,62.26
2018-07-22T02:56:37.355Z,61.77
2018-07-22T02:59:05.182Z,61.99
2018-07-22T03:01:32.933Z,61.74
2018-07-22T03:04:00.013Z,62.35
2018-07-22T03:06:27.141Z,62.31
2018-07-22T03:08:54.483Z,62.01
2018-07-22T03:11:21.464Z,61.99
2018-07-22T03:13:48.940Z,62.07
2018-07-22T03:16:16.098Z,62.27
2018-07-22T03:18:43.092Z,62.21
2018-07-22T03:21:10.236Z,62.23
2018-07-22T03:23:37.445Z,62.33
2018-07-22T03:26:04.538Z,62.48
2018-07-22T03:28:31.941Z,62.39
2018-07-22T03:30:59.001Z,62.65
2018-07-22T03:33:25.960Z,62.89
2018-07-22T03:35:53.039Z,62.97
2018-07-22T03:38:20.248Z,62.45
2018-07-22T03:40:47.195Z,62.60
2018-07-22T03:43:14.409Z,63.12
2018-07-22T03:45:41.689Z,62.75
2018-07-22T03:48:08.665Z,62.62
2018-07-22T03:50:35.726Z,63.22
2018-07-22T03:53:03.048Z,62.76
2018-07-22T03:55:30.091Z,63.30
2018-07-22T03:57:57.931Z,62.83
2018-07-22T04:00:25.131Z,63.11
2018-07-22T04:02:52.122Z,62.63
2018-07-22T04:05:19.248Z,62.90
2018-07-22T04:07:46.306Z,62.68
2018-07-22T04:10:13.325Z,62.93
2018-07-22T04:12:40.516Z,63.00
2018-07-22T04:15:08.082Z,62.79
2018-07-22T04:17:35.021Z,63.35
2018-07-22T04:20:02.055Z,62.92
2018-07-22T04:22:29.335Z,63.48
2018-07-22T04:24:56.421Z,63.16
2018-07-22T04:27:23.630Z,63.22
2018-07-22T04:29:50.795Z,63.90
2018-07-22T04:32:17.733Z,64.07
2018-07-22T04:34:44.814Z,63.94
2018-07-22T04:37:12.004Z,63.75
2018-07-22T04:39:38.929Z,64.03
2018-07-22T04:42:06.208Z,64.72
2018-07-22T04:44:33.368Z,64.80
2018-07-22T04:47:01.064Z,64.82
2018-07-22T04:49:28.852Z,64.24
2018-07-22T04:51:56.625Z,64.26
2018-07-22T04:54:24.210Z,64.74
2018-07-22T04:56:52.035Z,64.51
2018-07-22T04:59:19.837Z,64.34
2018-07-22T05:01:47.378Z,64.74
2018-07-22T05:04:15.114Z,64.07
2018-07-22T05:06:42.925Z,64.35
2018-07-22T05:09:11.763Z,63.82
2018-07-22T05:11:39.622Z,63.97
2018-07-22T05:14:07.492Z,63.72
2018-07-22T05:16:35.519Z,64.12
2018-07-22T05:19:03.321Z,63.53
2018-07-22T05:21:31.222Z,64.10
2018-07-22T05:23:58.852Z,63.47
2018-07-22T05:26:26.675Z,63.38
2018-07-22T05:28:54.450Z,63.77
2018-07-22T05:31:22.029Z,64.02
2018-07-22T05:33:49.835Z,63.37
2018-07-22T05:36:17.564Z,63.70
2018-07-22T05:38:45.207Z,63.87
2018-07-22T05:41:12.946Z,63.20
2018-07-22T05:43:40.712Z,63.38
2018-07-22T05:46:08.351Z,63.51
2018-07-22T05:48:36.270Z,63.59
2018-07-22T05:51:04.033Z,63.82
2018-07-22T05:53:38.668Z,63.15
2018-07-22T05:56:06.507Z,63.13
2018-07-22T05:58:34.082Z,63.68
2018-07-22T06:01:01.818Z,63.13
2018-07-22T06:03:29.664Z,63.60
2018-07-22T06:05:57.237Z,63.16
2018-07-22T06:08:25.134Z,63.50
2018-07-22T06:10:52.918Z,63.68
2018-07-22T06:13:20.474Z,63.34
2018-07-22T06:15:48.959Z,63.51
2018-07-22T06:18:16.875Z,63.37
2018-07-22T06:20:44.434Z,63.51
2018-07-22T06:23:12.152Z,63.59
2018-07-22T06:25:39.865Z,63.63
2018-07-22T06:28:07.883Z,64.25
2018-07-22T06:30:35.632Z,63.53
2018-07-22T06:33:03.516Z,63.99
2018-07-22T06:35:31.177Z,63.71
2018-07-22T06:37:58.937Z,63.18
2018-07-22T06:40:26.618Z,63.20
2018-07-22T06:42:54.283Z,63.32
2018-07-22T06:45:22.007Z,63.92
2018-07-22T06:47:51.012Z,63.94
2018-07-22T06:50:18.708Z,63.19
2018-07-22T06:53:17.001Z,63.48
2018-07-22T06:55:44.968Z,63.15
2018-07-22T06:58:12.606Z,63.36
2018-07-22T07:00:40.408Z,63.50
2018-07-22T07:03:08.326Z,63.47
2018-07-22T07:05:35.897Z,63.76
2018-07-22T07:08:03.807Z,63.79
2018-07-22T07:10:31.915Z,63.29
2018-07-22T07:12:59.575Z,63.62
2018-07-22T07:15:27.203Z,63.63
2018-07-22T07:17:54.932Z,64.22
2018-07-22T07:20:22.697Z,64.00
2018-07-22T07:22:50.483Z,64.08
2018-07-22T07:25:18.263Z,64.30
2018-07-22T07:27:45.882Z,64.09
2018-07-22T07:30:13.662Z,64.14
2018-07-22T07:32:41.475Z,64.79
2018-07-22T07:35:09.103Z,64.89
2018-07-22T07:37:37.227Z,64.79
2018-07-22T07:40:04.940Z,64.24
2018-07-22T07:42:32.539Z,64.39
2018-07-22T07:45:00.328Z,64.33
2018-07-22T07:47:28.195Z,64.38
2018-07-22T07:49:55.812Z,64.47
2018-07-22T07:52:23.597Z,65.13
2018-07-22T07:54:51.670Z,65.21
2018-07-22T07:57:19.235Z,64.78
2018-07-22T07:59:47.209Z,65.30
2018-07-22T08:02:15.096Z,65.36
2018-07-22T08:04:42.632Z,65.36
2018-07-22T08:07:10.427Z,64.99
2018-07-22T08:09:38.222Z,65.12
2018-07-22T08:12:05.791Z,65.28
2018-07-22T08:14:33.539Z,65.30
2018-07-22T08:17:01.309Z,65.48
2018-07-22T08:19:28.835Z,66.07
2018-07-22T08:21:56.705Z,65.55
2018-07-22T08:24:24.971Z,65.41
2018-07-22T08:26:52.572Z,65.53
2018-07-22T08:29:22.818Z,65.68
2018-07-22T08:31:50.583Z,65.65
2018-07-22T08:34:18.364Z,65.73
2018-07-22T08:36:46.685Z,65.67
2018-07-22T08:39:14.608Z,66.29
2018-07-22T08:41:42.796Z,65.56
2018-07-22T08:44:10.533Z,66.08
2018-07-22T08:46:39.584Z,65.68
2018-07-22T08:49:07.263Z,65.54
2018-07-22T08:51:34.898Z,65.40
2018-07-22T08:54:02.935Z,65.54
2018-07-22T08:56:30.796Z,65.47
2018-07-22T08:58:58.637Z,65.59
2018-07-22T09:01:27.075Z,66.09
2018-07-22T09:03:54.666Z,65.75
2018-07-22T09:06:22.584Z,65.91
2018-07-22T09:08:50.334Z,66.06
2018-07-22T09:11:17.956Z,66.02
2018-07-22T09:13:45.736Z,66.58
2018-07-22T09:16:13.788Z,66.10
2018-07-22T09:18:41.381Z,67.00
2018-07-22T09:21:09.136Z,67.16
2018-07-22T09:23:37.154Z,66.96
2018-07-22T09:26:04.785Z,67.13
2018-07-22T09:28:32.607Z,67.13
2018-07-22T09:31:00.434Z,67.78
2018-07-22T09:33:28.032Z,67.50
2018-07-22T09:35:56.012Z,67.88
2018-07-22T09:38:23.631Z,68.30
2018-07-22T09:40:51.178Z,68.20
2018-07-22T09:43:18.890Z,68.27
2018-07-22T09:45:46.698Z,68.76
2018-07-22T09:48:14.324Z,68.51
2018-07-22T09:50:42.008Z,68.70
2018-07-22T09:53:09.788Z,68.78
2018-07-22T09:55:37.361Z,69.45
2018-07-22T09:58:05.166Z,68.87
2018-07-22T10:00:40.742Z,69.12
2018-07-22T10:03:08.830Z,69.18
2018-07-22T10:05:36.817Z,69.72
2018-07-22T10:08:04.409Z,69.15
2018-07-22T10:10:32.807Z,69.67
2018-07-22T10:13:00.639Z,69.86
2018-07-22T10:15:28.263Z,69.47
2018-07-22T10:17:56.023Z,69.74
2018-07-22T10:20:23.833Z,69.35
2018-07-22T10:22:51.482Z,69.16
2018-07-22T10:25:19.485Z,69.86
2018-07-22T10:27:47.426Z,69.33
2018-07-22T10:30:15.085Z,69.30
2018-07-22T10:32:42.796Z,69.94
2018-07-22T10:35:10.550Z,69.99
2018-07-22T10:37:38.212Z,70.22
2018-07-22T10:40:06.076Z,70.06
2018-07-22T10:42:33.966Z,69.58
2018-07-22T10:45:01.539Z,70.00
2018-07-22T10:47:29.373Z,70.23
2018-07-22T10:49:57.167Z,69.87
2018-07-22T10:52:24.749Z,69.91
2018-07-22T10:54:53.074Z,70.17
2018-07-22T10:57:20.800Z,70.32
2018-07-22T10:59:48.450Z,70.47
2018-07-22T11:02:16.260Z,71.02
2018-07-22T11:04:43.953Z,71.22
2018-07-22T11:07:11.538Z,71.14
2018-07-22T11:09:39.602Z,70.54
2018-07-22T11:12:07.611Z,70.79
2018-07-22T11:14:35.577Z,70.70
2018-07-22T11:17:03.351Z,70.87
2018-07-22T11:19:31.785Z,70.92
2018-07-22T11:21:59.333Z,70.89
2018-07-22T11:24:27.215Z,70.95
2018-07-22T11:26:55.263Z,71.34
2018-07-22T11:29:22.844Z,70.88
2018-07-22T11:31:50.451Z,70.87
2018-07-22T11:34:18.259Z,71.05
2018-07-22T11:36:45.815Z,71.26
2018-07-22T11:39:14.723Z,71.25
2018-07-22T11:41:42.556Z,71.31
2018-07-22T11:44:10.208Z,71.24
2018-07-22T11:46:40.935Z,71.14
2018-07-22T11:49:08.938Z,71.71
2018-07-22T11:51:37.254Z,71.67
2018-07-22T11:54:05.254Z,71.43
2018-07-22T11:56:33.010Z,71.11
2018-07-22T11:59:00.858Z,71.21
2018-07-22T12:01:28.764Z,71.24
2018-07-22T12:03:56.567Z,71.34
2018-07-22T12:06:24.308Z,71.63
2018-07-22T12:08:52.106Z,71.87
2018-07-22T12:11:19.868Z,72.05
2018-07-22T12:13:47.415Z,71.51
2018-07-22T12:16:16.097Z,71.93
2018-07-22T12:18:43.934Z,71.84
2018-07-22T12:21:11.494Z,71.32
2018-07-22T12:23:39.246Z,71.93
2018-07-22T12:26:07.071Z,72.11
2018-07-22T12:28:34.833Z,72.16
2018-07-22T12:31:02.554Z,72.06
2018-07-22T12:33:30.309Z,72.05
2018-07-22T12:35:57.834Z,71.63
2018-07-22T12:38:25.696Z,71.62
2018-07-22T12:40:53.500Z,72.24
2018-07-22T12:43:21.066Z,72.10
2018-07-22T12:45:48.783Z,71.85
2018-07-22T12:48:16.592Z,72.25
2018-07-22T12:50:44.156Z,71.76
2018-07-22T12:53:12.203Z,71.93
2018-07-22T12:55:40.038Z,72.38
2018-07-22T12:58:07.922Z,71.58
2018-07-22T13:00:35.664Z,72.13
2018-07-22T13:03:03.793Z,72.18
2018-07-22T13:05:31.404Z,71.83
2018-07-22T13:07:59.065Z,71.58
2018-07-22T13:10:26.961Z,71.38
2018-07-22T13:12:54.532Z,71.41
2018-07-22T13:15:22.339Z,71.48
2018-07-22T13:17:50.203Z,71.52
2018-07-22T13:20:17.844Z,71.52
2018-07-22T13:22:45.590Z,71.88
2018-07-22T13:25:13.294Z,71.97
2018-07-22T13:27:40.928Z,71.61
2018-07-22T13:30:09.171Z,71.78
2018-07-22T13:32:36.859Z,71.47
2018-07-22T13:35:04.726Z,72.01
2018-07-22T13:37:32.468Z,71.85
2018-07-22T13:40:00.320Z,71.61
2018-07-22T13:42:27.934Z,71.70
2018-07-22T13:44:55.828Z,71.26
2018-07-22T13:47:23.620Z,71.39
2018-07-22T13:49:51.255Z,71.55
2018-07-22T13:52:19.691Z,71.29
2018-07-22T13:54:47.535Z,71.42
2018-07-22T13:57:15.164Z,71.18
2018-07-22T13:59:42.970Z,71.42
2018-07-22T14:02:11.278Z,71.38
2018-07-22T14:04:38.954Z,71.42
2018-07-22T14:07:06.654Z,71.24
2018-07-22T14:09:34.548Z,71.24
2018-07-22T14:12:02.324Z,71.75
2018-07-22T14:14:30.173Z,71.59
2018-07-22T14:16:57.911Z,71.38
2018-07-22T14:19:25.525Z,70.77
2018-07-22T14:21:53.307Z,71.46
2018-07-22T14:24:21.159Z,71.52
2018-07-22T14:26:48.742Z,71.19
2018-07-22T14:29:16.431Z,70.90
2018-07-22T14:31:45.124Z,70.77
2018-07-22T14:34:12.708Z,70.09
2018-07-22T14:36:40.614Z,70.29
2018-07-22T14:39:09.957Z,69.94
2018-07-22T14:41:37.601Z,70.35
2018-07-22T14:44:05.428Z,69.77
2018-07-22T14:46:33.190Z,69.77
2018-07-22T14:49:01.819Z,70.07
2018-07-22T14:51:30.257Z,69.95
2018-07-22T14:53:58.209Z,69.95
2018-07-22T14:56:25.863Z,70.05
2018-07-22T14:58:54.325Z,69.53
2018-07-22T15:01:22.154Z,69.51
2018-07-22T15:03:49.743Z,69.42
2018-07-22T15:06:17.576Z,69.95
2018-07-22T15:08:45.452Z,69.35
2018-07-22T15:11:13.073Z,69.45
2018-07-22T15:13:40.986Z,69.76
2018-07-22T15:16:11.620Z,69.12
2018-07-22T15:18:39.260Z,69.52
2018-07-22T15:21:07.092Z,69.06
2018-07-22T15:23:34.867Z,69.62
2018-07-22T15:26:02.952Z,69.61
2018-07-22T15:28:31.480Z,69.15
2018-07-22T15:30:59.335Z,69.20
2018-07-22T15:33:27.124Z,69.60
2018-07-22T15:35:54.909Z,69.74
2018-07-22T15:38:22.646Z,69.01
2018-07-22T15:40:50.268Z,69.28
2018-07-22T15:43:17.953Z,69.88
2018-07-22T15:45:45.717Z,69.61
2018-07-22T15:48:13.320Z,69.01
2018-07-22T15:50:41.118Z,68.68
2018-07-22T15:53:08.890Z,68.85
2018-07-22T15:55:36.674Z,68.39
2018-07-22T15:58:04.328Z,67.80
2018-07-22T16:00:32.110Z,66.94
2018-07-22T16:02:59.735Z,66.72
2018-07-22T16:05:27.470Z,67.30
2018-07-22T16:07:55.171Z,66.78
2018-07-22T16:10:22.752Z,66.75
2018-07-22T16:12:50.441Z,67.10
2018-07-22T16:15:18.169Z,66.68
2018-07-22T16:17:45.836Z,67.38
2018-07-22T16:20:13.485Z,67.16
2018-07-22T16:22:41.234Z,66.61
2018-07-22T16:25:09.273Z,66.98
2018-07-22T16:27:36.917Z,67.12
2018-07-22T16:30:05.364Z,66.53
2018-07-22T16:32:32.909Z,66.19
2018-07-22T16:35:00.651Z,66.19
2018-07-22T16:37:28.442Z,65.70
2018-07-22T16:39:56.057Z,65.93
2018-07-22T16:42:24.428Z,65.58
2018-07-22T16:44:53.230Z,65.07
2018-07-22T16:47:21.658Z,64.61
2018-07-22T16:49:50.317Z,64.69
2018-07-22T16:52:18.160Z,64.71
2018-07-22T16:54:45.785Z,64.33
2018-07-22T16:57:13.725Z,64.33
2018-07-22T16:59:41.416Z,64.15
2018-07-22T17:02:08.981Z,63.70
2018-07-22T17:04:36.638Z,63.81
2018-07-22T17:07:04.355Z,63.62
2018-07-22T17:09:31.906Z,63.75
2018-07-22T17:11:59.642Z,63.22
2018-07-22T17:14:27.355Z,63.22
2018-07-22T17:16:55.009Z,63.04
2018-07-22T17:19:22.736Z,63.33
2018-07-22T17:21:50.424Z,63.33
2018-07-22T17:24:18.032Z,63.79
2018-07-22T17:26:45.774Z,63.81
2018-07-22T17:29:13.420Z,63.20
2018-07-22T17:31:41.007Z,63.30
2018-07-22T17:34:08.675Z,63.87
2018-07-22T17:36:36.654Z,63.74
2018-07-22T17:39:07.181Z,63.83
2018-07-22T17:41:34.796Z,64.05
2018-07-22T17:44:02.437Z,63.86
2018-07-22T17:46:29.997Z,63.54
2018-07-22T17:48:57.770Z,63.94
2018-07-22T17:51:25.446Z,63.82
2018-07-22T17:53:52.975Z,63.92
2018-07-22T17:56:20.613Z,63.84
2018-07-22T17:58:48.401Z,63.33
2018-07-22T18:01:16.063Z,63.75
2018-07-22T18:03:43.766Z,63.33
2018-07-22T18:06:11.610Z,63.22
2018-07-22T18:08:39.216Z,63.82
2018-07-22T18:11:06.939Z,63.70
2018-07-22T18:13:34.756Z,63.46
2018-07-22T18:16:02.345Z,63.77
2018-07-22T18:18:30.046Z,63.69
2018-07-22T18:20:57.780Z,63.63
2018-07-22T18:23:25.422Z,63.70
2018-07-22T18:25:53.105Z,64.41
2018-07-22T18:28:20.854Z,64.10
2018-07-22T18:30:48.450Z,64.23
2018-07-22T18:33:16.213Z,64.60
2018-07-22T18:35:43.895Z,64.32
2018-07-22T18:38:11.697Z,64.25
2018-07-22T18:40:39.367Z,64.81
2018-07-22T18:43:07.125Z,64.96
2018-07-22T18:45:34.753Z,64.54
2018-07-22T18:48:02.540Z,65.03
2018-07-22T18:50:30.383Z,64.75
2018-07-22T18:52:58.760Z,64.96
2018-07-22T18:55:26.574Z,65.37
2018-07-22T18:57:54.355Z,64.90
2018-07-22T19:00:22.054Z,65.05
2018-07-22T19:02:49.873Z,65.09
2018-07-22T19:05:17.608Z,65.88
2018-07-22T19:07:45.246Z,65.52
2018-07-22T19:10:13.028Z,65.45
2018-07-22T19:12:40.780Z,65.56
2018-07-22T19:15:08.481Z,65.54
2018-07-22T19:17:36.372Z,65.26
2018-07-22T19:20:04.332Z,65.94
2018-07-22T19:22:32.041Z,65.87
2018-07-22T19:24:59.710Z,66.14
2018-07-22T19:27:27.399Z,66.35
2018-07-22T19:29:55.040Z,66.48
2018-07-22T19:32:22.845Z,66.21
2018-07-22T19:34:50.693Z,66.64
2018-07-22T19:37:18.316Z,66.76
2018-07-22T19:39:46.142Z,66.96
2018-07-22T19:42:14.011Z,66.50
2018-07-22T19:44:41.656Z,67.11
2018-07-22T19:47:09.469Z,67.14
2018-07-22T19:49:37.222Z,67.30
2018-07-22T19:52:04.877Z,66.88
2018-07-22T19:54:32.577Z,67.12
2018-07-22T19:57:00.454Z,67.51
2018-07-22T19:59:28.081Z,67.12
2018-07-22T20:01:55.940Z,67.53
2018-07-22T20:04:24.042Z,67.48
2018-07-22T20:06:51.688Z,67.90
2018-07-22T20:09:19.550Z,67.74
2018-07-22T20:11:47.381Z,68.12
2018-07-22T20:14:15.051Z,67.90
2018-07-22T20:16:42.829Z,68.21
2018-07-22T20:19:10.811Z,67.90
2018-07-22T20:21:38.454Z,68.28
2018-07-22T20:24:06.347Z,68.07
2018-07-22T20:26:34.172Z,68.53
2018-07-22T20:29:01.811Z,68.63
2018-07-22T20:31:29.661Z,68.26
2018-07-22T20:33:57.497Z,68.59
2018-07-22T20:36:25.140Z,68.59
2018-07-22T20:38:52.964Z,68.45
2018-07-22T20:41:21.073Z,68.70
2018-07-22T20:43:48.708Z,68.31
2018-07-22T20:46:16.428Z,68.82
2018-07-22T20:48:44.244Z,68.16
2018-07-22T20:51:11.852Z,68.63
2018-07-22T20:53:39.521Z,69.06
2018-07-22T20:56:07.348Z,69.03
2018-07-22T20:58:35.618Z,68.57
2018-07-22T21:01:03.396Z,68.99
2018-07-22T21:03:31.156Z,68.54
2018-07-22T21:05:58.744Z,69.05
2018-07-22T21:08:26.541Z,68.68
2018-07-22T21:10:54.472Z,69.02
2018-07-22T21:13:23.352Z,68.75
2018-07-22T21:15:51.108Z,68.71
2018-07-22T21:18:18.933Z,68.87
2018-07-22T21:20:46.584Z,69.34
2018-07-22T21:23:14.328Z,69.31
2018-07-22T21:25:42.171Z,69.44
2018-07-22T21:28:09.800Z,68.83
2018-07-22T21:30:37.581Z,69.65
2018-07-22T21:33:05.506Z,69.53
2018-07-22T21:35:33.164Z,69.12
2018-07-22T21:38:00.962Z,69.54
2018-07-22T21:40:28.992Z,69.50
2018-07-22T21:42:56.788Z,69.86
2018-07-22T21:45:24.648Z,69.51
2018-07-22T21:47:52.420Z,69.95
2018-07-22T21:50:20.026Z,69.56
2018-07-22T21:52:47.977Z,69.38
2018-07-22T21:55:15.905Z,69.28
2018-07-22T21:57:43.454Z,69.55
2018-07-22T22:00:31.965Z,69.79
2018-07-22T22:03:00.763Z,69.98
2018-07-22T22:05:28.692Z,69.87
2018-07-22T22:07:56.371Z,70.00
2018-07-22T22:10:24.494Z,69.90
2018-07-22T22:12:52.630Z,70.27
2018-07-22T22:15:23.253Z,70.17
2018-07-22T22:17:51.180Z,69.69
2018-07-22T22:20:19.076Z,70.28
2018-07-22T22:22:46.792Z,70.13
2018-07-22T22:25:14.726Z,69.76
2018-07-22T22:27:42.433Z,69.75
2018-07-22T22:30:10.601Z,70.38
2018-07-22T22:32:38.580Z,69.97
2018-07-22T22:35:06.728Z,70.02
2018-07-22T22:37:34.400Z,70.00
2018-07-22T22:40:02.202Z,70.48
2018-07-22T22:42:30.107Z,70.45
2018-07-22T22:44:57.992Z,70.09
2018-07-22T22:47:25.764Z,70.50
2018-07-22T22:49:53.473Z,70.54
2018-07-22T22:52:21.108Z,70.65
2018-07-22T22:54:48.920Z,70.54
2018-07-22T22:57:16.943Z,70.32
2018-07-22T22:59:44.573Z,70.76
2018-07-22T23:02:12.392Z,70.27
2018-07-22T23:04:40.266Z,70.34
2018-07-22T23:07:08.450Z,70.40
2018-07-22T23:09:36.225Z,70.46
2018-07-22T23:12:04.174Z,70.36
2018-07-22T23:14:32.571Z,70.41
2018-07-22T23:17:00.403Z,70.83
2018-07-22T23:19:28.238Z,71.02
2018-07-22T23:21:55.902Z,70.58
2018-07-22T23:24:23.697Z,71.07
2018-07-22T23:26:51.523Z,70.76
2018-07-22T23:29:19.146Z,70.79
2018-07-22T23:31:47.018Z,71.11
2018-07-22T23:34:14.895Z,70.91
2018-07-22T23:36:42.582Z,71.01
2018-07-22T23:39:10.450Z,71.01
2018-07-22T23:41:38.254Z,71.37
2018-07-22T23:44:06.035Z,71.25
2018-07-22T23:46:34.194Z,71.45
2018-07-22T23:49:03.017Z,70.93
2018-07-22T23:51:30.741Z,71.19
2018-07-22T23:53:58.557Z,70.96
2018-07-22T23:56:26.530Z,70.90
2018-07-22T23:58:55.015Z,71.28
